Time;durP1;ratioP1;P1;durP2;ratioP2;P2;SDS_P1;SDS_P2;PMS_P1;PMS_P2;Temp;Humidity;BMP_temperature;BMP_pressure;BME280_temperature;BME280_humidity;BME280_pressure;Samples;Min_cycle;Max_cycle;Signal;HPM_P1;HPM_P2
2022/01/09 00:00:29;;;;;;;;;;;8.70;95.70;;;;;;4972132;28;19924;-87
2022/01/09 00:02:57;;;;;;;;;;;8.70;95.60;;;;;;4993304;28;20104;-88
2022/01/09 00:05:24;;;;;;;;;;;8.70;95.60;;;;;;5006766;28;19922;-87
2022/01/09 00:07:51;;;;;;;;;;;8.70;95.70;;;;;;4977469;28;19928;-88
2022/01/09 00:10:18;;;;;;;;;;;8.60;95.60;;;;;;4984843;28;20414;-89
2022/01/09 00:12:45;;;;;;;;;;;8.60;95.60;;;;;;4998083;28;20105;-89
2022/01/09 00:15:12;;;;;;;;;;;8.60;95.70;;;;;;4989323;28;20427;-91
2022/01/09 00:17:39;;;;;;;;;;;8.50;95.60;;;;;;4986719;28;20282;-91
2022/01/09 00:20:07;;;;;;;;;;;8.60;95.60;;;;;;4994539;28;19921;-88
2022/01/09 00:22:46;;;;;;;;;;;8.50;95.60;;;;;;4987494;28;19914;-88
2022/01/09 00:25:14;;;;;;;;;;;8.50;95.60;;;;;;4998739;28;19928;-90
2022/01/09 00:27:41;;;;;;;;;;;8.50;95.60;;;;;;4989868;28;20208;-88
2022/01/09 00:30:09;;;;;;;;;;;8.50;95.50;;;;;;4995489;28;20104;-91
2022/01/09 00:32:36;;;;;;;;;;;8.50;95.60;;;;;;4983622;28;19913;-88
2022/01/09 00:35:04;;;;;;;;;;;8.50;95.50;;;;;;4985980;28;19943;-89
2022/01/09 00:37:31;;;;;;;;;;;8.40;95.50;;;;;;4999124;28;19917;-88
2022/01/09 00:39:58;;;;;;;;;;;8.50;95.60;;;;;;4969621;28;20438;-88
2022/01/09 00:42:24;;;;;;;;;;;8.40;95.50;;;;;;4997473;28;19921;-90
2022/01/09 00:44:51;;;;;;;;;;;8.40;95.60;;;;;;4992085;28;19917;-88
2022/01/09 00:47:18;;;;;;;;;;;8.40;95.60;;;;;;4979377;28;19921;-88
2022/01/09 00:49:45;;;;;;;;;;;8.50;95.70;;;;;;4989650;28;20286;-89
2022/01/09 00:52:12;;;;;;;;;;;8.50;95.70;;;;;;5001037;28;19928;-89
2022/01/09 00:54:39;;;;;;;;;;;8.40;95.70;;;;;;4974278;28;19920;-88
2022/01/09 00:57:07;;;;;;;;;;;8.50;95.80;;;;;;4995744;28;20317;-90
2022/01/09 00:59:34;;;;;;;;;;;8.50;95.90;;;;;;4978646;28;19917;-89
2022/01/09 01:02:01;;;;;;;;;;;8.50;95.90;;;;;;4997011;28;19928;-91
2022/01/09 01:04:28;;;;;;;;;;;8.50;95.90;;;;;;4985016;28;19922;-89
2022/01/09 01:06:56;;;;;;;;;;;8.50;96.00;;;;;;4971156;28;19910;-89
2022/01/09 01:09:30;;;;;;;;;;;8.50;95.90;;;;;;4994830;28;19920;-88
2022/01/09 01:11:58;;;;;;;;;;;8.60;95.90;;;;;;4985604;28;19932;-89
2022/01/09 01:14:26;;;;;;;;;;;8.60;95.90;;;;;;4999750;28;19939;-90
2022/01/09 01:16:54;;;;;;;;;;;8.60;95.90;;;;;;4976071;28;20099;-89
2022/01/09 01:19:22;;;;;;;;;;;8.60;95.90;;;;;;4988806;28;19944;-92
2022/01/09 01:21:49;;;;;;;;;;;8.60;95.90;;;;;;4993218;28;19920;-90
2022/01/09 01:24:18;;;;;;;;;;;8.60;95.80;;;;;;4997124;28;19921;-90
2022/01/09 01:26:45;;;;;;;;;;;8.60;95.90;;;;;;4977376;28;19922;-90
2022/01/09 01:29:11;;;;;;;;;;;8.70;95.90;;;;;;4991301;28;19918;-89
2022/01/09 01:31:38;;;;;;;;;;;8.60;95.80;;;;;;4994168;28;20398;-91
2022/01/09 01:34:05;;;;;;;;;;;8.60;95.80;;;;;;4994620;28;19917;-90
2022/01/09 01:36:32;;;;;;;;;;;8.60;95.70;;;;;;4990662;28;19927;-91
2022/01/09 01:38:59;;;;;;;;;;;8.60;95.70;;;;;;5000140;28;20304;-91
2022/01/09 01:41:26;;;;;;;;;;;8.60;95.60;;;;;;4993440;28;19913;-90
2022/01/09 01:43:53;;;;;;;;;;;8.60;95.70;;;;;;4983716;28;19943;-92
2022/01/09 01:46:20;;;;;;;;;;;8.60;95.70;;;;;;4999047;28;19913;-91
2022/01/09 01:48:47;;;;;;;;;;;8.60;95.70;;;;;;4997013;28;20182;-90
2022/01/09 01:51:13;;;;;;;;;;;8.60;95.60;;;;;;4988983;28;19918;-91
2022/01/09 01:53:40;;;;;;;;;;;8.60;95.60;;;;;;4990351;28;19922;-89
2022/01/09 01:56:07;;;;;;;;;;;8.60;95.60;;;;;;4993016;28;19922;-90
2022/01/09 01:58:35;;;;;;;;;;;8.60;95.60;;;;;;4982817;28;19918;-90
2022/01/09 02:01:02;;;;;;;;;;;8.60;95.50;;;;;;4995001;28;19914;-89
2022/01/09 02:03:29;;;;;;;;;;;8.60;95.60;;;;;;4995102;28;19914;-90
2022/01/09 02:05:56;;;;;;;;;;;8.60;95.60;;;;;;4981962;28;19928;-89
2022/01/09 02:08:23;;;;;;;;;;;8.60;95.60;;;;;;4998149;28;19913;-89
2022/01/09 02:10:50;;;;;;;;;;;8.60;95.60;;;;;;4994570;28;20007;-89
2022/01/09 02:13:19;;;;;;;;;;;8.60;95.40;;;;;;4994633;28;20293;-90
2022/01/09 02:15:46;;;;;;;;;;;8.60;95.40;;;;;;4983056;28;20542;-89
2022/01/09 02:18:19;;;;;;;;;;;8.60;95.40;;;;;;4982682;28;19925;-89
2022/01/09 02:20:46;;;;;;;;;;;8.60;95.40;;;;;;5001276;28;20133;-91
2022/01/09 02:23:15;;;;;;;;;;;8.60;95.40;;;;;;4990808;28;20389;-90
2022/01/09 02:25:43;;;;;;;;;;;8.60;95.30;;;;;;4994733;28;20660;-91
2022/01/09 02:28:10;;;;;;;;;;;8.60;95.20;;;;;;4997262;28;19924;-91
2022/01/09 02:30:38;;;;;;;;;;;8.60;95.20;;;;;;4983152;28;19948;-88
2022/01/09 02:33:07;;;;;;;;;;;8.50;95.20;;;;;;4997378;28;19917;-88
2022/01/09 02:35:34;;;;;;;;;;;8.50;95.20;;;;;;4984537;28;19926;-90
2022/01/09 02:38:03;;;;;;;;;;;8.60;95.00;;;;;;4992444;28;19925;-88
2022/01/09 02:40:30;;;;;;;;;;;8.50;95.10;;;;;;4979866;28;19914;-89
2022/01/09 02:42:57;;;;;;;;;;;8.50;95.10;;;;;;4990725;28;20386;-89
2022/01/09 02:45:27;;;;;;;;;;;8.40;95.00;;;;;;4985912;28;19923;-89
2022/01/09 02:47:55;;;;;;;;;;;8.40;95.10;;;;;;4964376;28;19913;-90
2022/01/09 02:53:01;;;;;;;;;;;8.40;94.80;;;;;;4984057;28;20575;-90
2022/01/09 02:55:29;;;;;;;;;;;8.40;95.00;;;;;;4996197;28;19923;-91
2022/01/09 02:57:57;;;;;;;;;;;8.40;95.10;;;;;;4987100;28;19922;-88
2022/01/09 03:00:25;;;;;;;;;;;8.50;95.20;;;;;;4991723;28;19924;-88
2022/01/09 03:02:52;;;;;;;;;;;8.40;95.50;;;;;;4980817;28;20202;-89
2022/01/09 03:05:19;;;;;;;;;;;8.40;95.20;;;;;;4982212;28;19920;-89
2022/01/09 03:07:46;;;;;;;;;;;8.40;95.30;;;;;;4976764;28;20125;-89
2022/01/09 03:10:14;;;;;;;;;;;8.40;95.20;;;;;;5004691;28;20020;-89
2022/01/09 03:12:41;;;;;;;;;;;8.40;95.20;;;;;;4994760;28;19924;-89
2022/01/09 03:15:08;;;;;;;;;;;8.40;95.00;;;;;;4991874;28;19917;-87
2022/01/09 03:17:35;;;;;;;;;;;8.40;95.10;;;;;;4979587;28;19919;-88
2022/01/09 03:20:04;;;;;;;;;;;8.40;95.00;;;;;;4987616;28;19917;-87
2022/01/09 03:22:31;;;;;;;;;;;8.40;94.80;;;;;;4990646;28;19914;-89
2022/01/09 03:24:58;;;;;;;;;;;8.40;94.60;;;;;;4963639;28;19921;-87
2022/01/09 03:27:25;;;;;;;;;;;8.40;94.80;;;;;;4996357;28;19913;-89
2022/01/09 03:29:51;;;;;;;;;;;8.40;94.80;;;;;;4993999;28;20018;-88
2022/01/09 03:32:18;;;;;;;;;;;8.40;94.70;;;;;;4988706;28;19917;-88
2022/01/09 03:34:45;;;;;;;;;;;8.30;94.60;;;;;;4975265;28;20098;-88
2022/01/09 03:37:12;;;;;;;;;;;8.30;94.60;;;;;;4998674;28;19920;-89
2022/01/09 03:39:39;;;;;;;;;;;8.30;94.70;;;;;;4977666;28;20542;-88
2022/01/09 03:42:06;;;;;;;;;;;8.30;94.50;;;;;;4980592;28;20311;-89
2022/01/09 03:44:33;;;;;;;;;;;8.20;94.50;;;;;;4988292;28;20286;-91
2022/01/09 03:47:00;;;;;;;;;;;8.20;94.50;;;;;;4990793;28;19914;-88
2022/01/09 03:49:26;;;;;;;;;;;8.20;94.50;;;;;;4984824;28;19914;-91
2022/01/09 03:51:55;;;;;;;;;;;8.20;94.40;;;;;;4993054;28;20092;-89
2022/01/09 03:54:22;;;;;;;;;;;8.10;93.90;;;;;;4979601;28;19914;-88
2022/01/09 03:56:50;;;;;;;;;;;8.20;94.10;;;;;;4978195;28;20461;-89
2022/01/09 03:59:17;;;;;;;;;;;8.10;94.20;;;;;;4988564;28;19936;-89
2022/01/09 04:01:44;;;;;;;;;;;8.20;94.40;;;;;;4987007;28;19917;-87
2022/01/09 04:04:11;;;;;;;;;;;8.10;94.60;;;;;;4980728;28;19921;-89
2022/01/09 04:06:46;;;;;;;;;;;8.10;94.40;;;;;;4976042;28;19927;-88
2022/01/09 04:09:27;;;;;;;;;;;8.10;94.60;;;;;;4983666;28;20429;-88
2022/01/09 04:12:02;;;;;;;;;;;8.10;94.60;;;;;;4973932;28;20659;-89
2022/01/09 04:14:31;;;;;;;;;;;8.10;94.70;;;;;;4991394;28;19933;-89
2022/01/09 04:16:59;;;;;;;;;;;8.10;94.70;;;;;;4988603;28;19921;-87
2022/01/09 04:19:26;;;;;;;;;;;8.10;94.40;;;;;;4976095;28;19918;-87
2022/01/09 04:21:53;;;;;;;;;;;8.10;94.40;;;;;;4983656;28;19991;-87
2022/01/09 04:24:20;;;;;;;;;;;8.10;94.40;;;;;;4992601;28;19928;-87
2022/01/09 04:26:47;;;;;;;;;;;8.20;94.40;;;;;;4975813;28;19932;-87
2022/01/09 04:29:13;;;;;;;;;;;8.20;94.30;;;;;;4994903;28;19935;-87
2022/01/09 04:31:40;;;;;;;;;;;8.10;94.20;;;;;;4990970;28;19913;-87
2022/01/09 04:34:07;;;;;;;;;;;8.10;94.30;;;;;;4987333;28;19914;-88
2022/01/09 04:36:34;;;;;;;;;;;8.10;94.40;;;;;;4974969;28;19927;-89
2022/01/09 04:39:01;;;;;;;;;;;8.10;94.30;;;;;;4992443;28;19917;-88
2022/01/09 04:41:28;;;;;;;;;;;8.20;94.30;;;;;;4986605;28;20144;-87
2022/01/09 04:43:54;;;;;;;;;;;8.20;94.40;;;;;;4967455;28;20503;-89
2022/01/09 04:46:29;;;;;;;;;;;8.10;94.40;;;;;;4988415;28;19921;-87
2022/01/09 04:48:56;;;;;;;;;;;8.10;94.40;;;;;;5010162;28;20538;-88
2022/01/09 04:51:23;;;;;;;;;;;8.10;94.40;;;;;;4980977;28;19918;-87
2022/01/09 04:53:50;;;;;;;;;;;8.10;94.30;;;;;;4984434;28;20095;-86
2022/01/09 04:56:17;;;;;;;;;;;8.10;94.30;;;;;;4987081;28;20538;-87
2022/01/09 04:58:44;;;;;;;;;;;8.10;94.20;;;;;;4984958;28;20617;-87
2022/01/09 05:01:10;;;;;;;;;;;8.10;94.20;;;;;;4992011;28;20437;-86
2022/01/09 05:03:37;;;;;;;;;;;8.00;94.10;;;;;;4988540;28;19914;-87
2022/01/09 05:06:04;;;;;;;;;;;8.10;94.20;;;;;;5011380;28;19914;-86
2022/01/09 05:08:31;;;;;;;;;;;8.00;94.10;;;;;;4977111;28;20275;-87
2022/01/09 05:10:58;;;;;;;;;;;8.00;94.20;;;;;;4987983;28;20091;-87
2022/01/09 05:13:25;;;;;;;;;;;7.90;93.90;;;;;;4973643;28;19913;-87
2022/01/09 05:15:51;;;;;;;;;;;7.90;93.70;;;;;;4986230;28;19924;-90
2022/01/09 05:18:19;;;;;;;;;;;7.80;93.40;;;;;;4999027;28;20140;-86
2022/01/09 05:20:46;;;;;;;;;;;7.80;93.60;;;;;;4996873;28;20117;-86
2022/01/09 05:23:13;;;;;;;;;;;7.70;93.50;;;;;;4979526;28;19937;-88
2022/01/09 05:25:40;;;;;;;;;;;7.70;93.60;;;;;;4984267;28;20448;-88
2022/01/09 05:28:07;;;;;;;;;;;7.60;93.70;;;;;;4987864;28;19914;-87
2022/01/09 05:30:33;;;;;;;;;;;7.60;93.30;;;;;;4980211;28;19922;-88
2022/01/09 05:33:00;;;;;;;;;;;7.50;93.30;;;;;;4993344;28;19924;-87
2022/01/09 05:35:27;;;;;;;;;;;7.50;93.50;;;;;;4989874;28;19972;-87
2022/01/09 05:37:54;;;;;;;;;;;7.40;93.40;;;;;;4998767;28;20199;-89
2022/01/09 05:40:21;;;;;;;;;;;7.40;93.80;;;;;;4988545;28;19924;-88
2022/01/09 05:42:48;;;;;;;;;;;7.30;93.60;;;;;;4984738;28;19914;-88
2022/01/09 05:45:18;;;;;;;;;;;7.30;93.70;;;;;;4998954;28;19913;-88
2022/01/09 05:47:45;;;;;;;;;;;7.30;93.80;;;;;;4984758;28;20287;-87
2022/01/09 05:50:12;;;;;;;;;;;7.30;93.90;;;;;;5001058;28;19919;-87
2022/01/09 05:52:39;;;;;;;;;;;7.30;94.00;;;;;;4987521;28;20424;-89
2022/01/09 05:55:06;;;;;;;;;;;7.20;93.90;;;;;;4984103;28;20386;-87
2022/01/09 05:57:33;;;;;;;;;;;7.20;94.00;;;;;;4962086;28;20019;-87
2022/01/09 06:00:00;;;;;;;;;;;7.20;94.00;;;;;;4990111;28;20313;-86
2022/01/09 06:02:27;;;;;;;;;;;7.30;94.20;;;;;;4973846;28;19913;-88
2022/01/09 06:04:54;;;;;;;;;;;7.20;94.20;;;;;;4987626;28;19916;-86
2022/01/09 06:07:21;;;;;;;;;;;7.30;94.30;;;;;;4989299;28;19917;-88
2022/01/09 06:09:47;;;;;;;;;;;7.20;94.30;;;;;;4964695;28;20371;-87
2022/01/09 06:12:14;;;;;;;;;;;7.30;94.40;;;;;;4997774;28;20426;-87
2022/01/09 06:14:41;;;;;;;;;;;7.30;94.40;;;;;;4986301;28;21189;-87
2022/01/09 06:17:08;;;;;;;;;;;7.20;94.40;;;;;;4981125;28;19913;-88
2022/01/09 06:19:35;;;;;;;;;;;7.30;94.50;;;;;;4981590;28;20371;-86
2022/01/09 06:22:02;;;;;;;;;;;7.30;94.50;;;;;;4997282;28;19924;-88
2022/01/09 06:24:29;;;;;;;;;;;7.30;94.40;;;;;;4978495;28;20410;-86
2022/01/09 06:26:56;;;;;;;;;;;7.30;94.60;;;;;;4975853;28;19925;-87
2022/01/09 06:29:22;;;;;;;;;;;7.30;94.40;;;;;;4981644;28;20341;-87
2022/01/09 06:31:50;;;;;;;;;;;7.40;94.50;;;;;;4992550;28;20412;-88
2022/01/09 06:34:17;;;;;;;;;;;7.30;94.40;;;;;;4987636;28;19917;-88
2022/01/09 06:36:44;;;;;;;;;;;7.30;94.50;;;;;;4974747;28;20631;-87
2022/01/09 06:39:10;;;;;;;;;;;7.30;94.40;;;;;;4988544;28;19917;-87
2022/01/09 06:41:37;;;;;;;;;;;7.30;94.50;;;;;;4961025;28;19917;-90
2022/01/09 06:44:04;;;;;;;;;;;7.40;94.50;;;;;;4988665;28;19913;-86
2022/01/09 06:46:31;;;;;;;;;;;7.30;94.50;;;;;;4972989;28;20129;-87
2022/01/09 06:48:58;;;;;;;;;;;7.30;94.50;;;;;;4988087;28;19914;-90
2022/01/09 06:51:25;;;;;;;;;;;7.30;94.50;;;;;;4985672;28;19940;-88
2022/01/09 06:53:51;;;;;;;;;;;7.30;94.50;;;;;;4981191;28;20271;-88
2022/01/09 06:56:18;;;;;;;;;;;7.30;94.50;;;;;;4986690;28;19914;-88
2022/01/09 06:58:45;;;;;;;;;;;7.20;94.40;;;;;;4985713;28;19917;-88
2022/01/09 07:01:12;;;;;;;;;;;7.20;94.50;;;;;;4983406;28;19922;-87
2022/01/09 07:03:39;;;;;;;;;;;7.20;94.60;;;;;;4980105;28;20278;-89
2022/01/09 07:06:06;;;;;;;;;;;7.20;94.60;;;;;;4991440;28;19921;-89
2022/01/09 07:08:36;;;;;;;;;;;7.20;94.70;;;;;;4979679;28;19943;-87
2022/01/09 07:11:04;;;;;;;;;;;7.20;94.60;;;;;;5009321;28;19914;-89
2022/01/09 07:13:31;;;;;;;;;;;7.20;94.50;;;;;;4976508;28;19922;-88
2022/01/09 07:15:58;;;;;;;;;;;7.20;94.50;;;;;;4986080;28;19914;-89
2022/01/09 07:18:25;;;;;;;;;;;7.10;94.40;;;;;;4987686;28;20440;-90
2022/01/09 07:20:52;;;;;;;;;;;7.10;94.50;;;;;;4989919;28;20268;-90
2022/01/09 07:23:19;;;;;;;;;;;7.10;94.50;;;;;;4995630;28;19922;-89
2022/01/09 07:25:46;;;;;;;;;;;7.00;94.50;;;;;;4993045;28;20018;-90
2022/01/09 07:28:12;;;;;;;;;;;7.00;94.50;;;;;;4981859;28;19921;-91
2022/01/09 07:30:39;;;;;;;;;;;7.00;94.50;;;;;;4983626;28;19922;-89
2022/01/09 07:33:06;;;;;;;;;;;7.00;94.60;;;;;;4997088;28;19913;-88
2022/01/09 07:35:33;;;;;;;;;;;6.90;94.60;;;;;;4993365;28;20029;-88
2022/01/09 07:38:00;;;;;;;;;;;6.90;94.60;;;;;;4984493;28;19914;-89
2022/01/09 07:40:28;;;;;;;;;;;6.90;94.60;;;;;;4986322;28;19914;-89
2022/01/09 07:42:55;;;;;;;;;;;6.90;94.70;;;;;;4979898;28;19914;-88
2022/01/09 07:45:24;;;;;;;;;;;6.90;94.70;;;;;;4983551;28;20475;-88
2022/01/09 07:47:52;;;;;;;;;;;6.80;94.70;;;;;;4980212;28;20290;-88
2022/01/09 07:50:19;;;;;;;;;;;6.80;94.70;;;;;;4989102;28;19921;-88
2022/01/09 07:52:45;;;;;;;;;;;6.80;94.70;;;;;;4979649;28;19928;-88
2022/01/09 07:55:12;;;;;;;;;;;6.80;94.70;;;;;;4979972;28;19924;-87
2022/01/09 07:57:40;;;;;;;;;;;6.80;94.70;;;;;;4992067;28;20267;-88
2022/01/09 08:00:08;;;;;;;;;;;6.80;94.70;;;;;;4978389;28;20393;-88
2022/01/09 08:02:35;;;;;;;;;;;6.70;94.70;;;;;;4984294;28;19922;-87
2022/01/09 08:05:02;;;;;;;;;;;6.70;94.70;;;;;;4984733;28;19920;-88
2022/01/09 08:07:29;;;;;;;;;;;6.70;94.70;;;;;;4994428;28;20321;-88
2022/01/09 08:09:56;;;;;;;;;;;6.70;94.80;;;;;;4982016;28;20425;-89
2022/01/09 08:12:23;;;;;;;;;;;6.70;94.80;;;;;;4973267;28;20164;-88
2022/01/09 08:14:50;;;;;;;;;;;6.70;94.80;;;;;;4977700;28;19914;-87
2022/01/09 08:17:16;;;;;;;;;;;6.70;94.90;;;;;;4997371;28;22367;-88
2022/01/09 08:19:43;;;;;;;;;;;6.70;95.00;;;;;;4983046;28;19914;-87
2022/01/09 08:22:10;;;;;;;;;;;6.80;95.00;;;;;;4992983;28;19917;-88
2022/01/09 08:24:40;;;;;;;;;;;6.80;95.00;;;;;;4980210;28;19922;-87
2022/01/09 08:27:08;;;;;;;;;;;6.80;95.00;;;;;;4982789;28;19921;-88
2022/01/09 08:29:35;;;;;;;;;;;6.90;95.10;;;;;;4994909;28;19920;-87
2022/01/09 08:32:02;;;;;;;;;;;6.90;95.10;;;;;;4988445;28;19922;-88
2022/01/09 08:34:28;;;;;;;;;;;6.90;95.10;;;;;;4992935;28;20501;-87
2022/01/09 08:36:55;;;;;;;;;;;6.90;95.20;;;;;;4995218;28;19927;-88
2022/01/09 08:39:22;;;;;;;;;;;7.00;95.10;;;;;;5004355;28;20202;-88
2022/01/09 08:41:49;;;;;;;;;;;6.90;95.10;;;;;;4996109;28;19932;-86
2022/01/09 08:44:16;;;;;;;;;;;7.00;95.10;;;;;;4974576;28;19956;-88
2022/01/09 08:46:43;;;;;;;;;;;6.90;95.00;;;;;;4996042;28;20393;-88
2022/01/09 08:49:09;;;;;;;;;;;6.90;95.00;;;;;;4984619;28;19924;-88
2022/01/09 08:51:36;;;;;;;;;;;6.90;95.00;;;;;;5000228;28;19919;-88
2022/01/09 08:54:03;;;;;;;;;;;6.90;95.00;;;;;;4988401;28;20481;-87
2022/01/09 08:56:32;;;;;;;;;;;6.90;95.00;;;;;;4990808;28;20111;-87
2022/01/09 08:59:01;;;;;;;;;;;6.90;95.10;;;;;;4989836;28;19924;-89
2022/01/09 09:01:28;;;;;;;;;;;7.00;95.30;;;;;;4982864;28;20005;-87
2022/01/09 09:03:55;;;;;;;;;;;7.00;95.30;;;;;;4994532;28;19924;-88
2022/01/09 09:06:22;;;;;;;;;;;7.00;95.20;;;;;;4976844;28;19918;-87
2022/01/09 09:08:48;;;;;;;;;;;7.00;95.30;;;;;;4984476;28;19922;-87
2022/01/09 09:11:15;;;;;;;;;;;7.10;95.40;;;;;;4983597;28;19914;-88
2022/01/09 09:13:42;;;;;;;;;;;7.20;95.50;;;;;;4985707;28;20401;-88
2022/01/09 09:16:10;;;;;;;;;;;7.20;95.60;;;;;;4983617;28;19917;-87
2022/01/09 09:18:37;;;;;;;;;;;7.30;95.60;;;;;;4983166;28;19913;-87
2022/01/09 09:21:04;;;;;;;;;;;7.50;95.80;;;;;;4984950;28;19920;-87
2022/01/09 09:23:30;;;;;;;;;;;7.60;96.00;;;;;;4993813;28;20322;-88
2022/01/09 09:25:57;;;;;;;;;;;7.80;96.00;;;;;;4982614;28;20690;-87
2022/01/09 09:28:24;;;;;;;;;;;7.90;96.20;;;;;;4982364;28;20241;-87
2022/01/09 09:30:51;;;;;;;;;;;8.10;96.30;;;;;;5007625;28;19936;-88
2022/01/09 09:33:18;;;;;;;;;;;8.30;96.50;;;;;;4984780;28;20263;-87
2022/01/09 09:35:45;;;;;;;;;;;8.50;96.60;;;;;;4984428;28;20394;-88
2022/01/09 09:38:11;;;;;;;;;;;8.80;96.70;;;;;;4951913;28;19914;-87
2022/01/09 09:40:39;;;;;;;;;;;9.10;96.70;;;;;;4962644;28;19941;-88
2022/01/09 09:43:06;;;;;;;;;;;9.40;96.90;;;;;;4942959;28;19918;-88
2022/01/09 09:45:33;;;;;;;;;;;9.70;96.90;;;;;;4950020;28;20449;-88
2022/01/09 09:48:00;;;;;;;;;;;10.00;97.00;;;;;;4940633;28;19914;-87
2022/01/09 09:50:27;;;;;;;;;;;10.40;97.00;;;;;;4962411;28;20321;-88
2022/01/09 09:52:55;;;;;;;;;;;10.70;96.80;;;;;;4950153;28;20314;-87
2022/01/09 09:55:22;;;;;;;;;;;11.00;96.60;;;;;;4972734;28;19948;-90
2022/01/09 09:57:49;;;;;;;;;;;11.20;96.50;;;;;;4956694;28;19922;-87
2022/01/09 10:00:17;;;;;;;;;;;11.40;95.80;;;;;;4950429;28;19914;-87
2022/01/09 10:02:47;;;;;;;;;;;11.60;95.80;;;;;;4950386;28;19922;-87
2022/01/09 10:05:24;;;;;;;;;;;11.90;95.70;;;;;;4958651;28;20007;-87
2022/01/09 10:07:52;;;;;;;;;;;12.10;95.30;;;;;;4953722;28;19941;-87
2022/01/09 10:10:20;;;;;;;;;;;12.40;95.50;;;;;;4954915;28;20398;-88
2022/01/09 10:12:47;;;;;;;;;;;12.60;94.90;;;;;;4949865;28;19929;-87
2022/01/09 10:15:17;;;;;;;;;;;12.80;94.30;;;;;;4953745;28;20152;-87
2022/01/09 10:17:48;;;;;;;;;;;12.90;93.70;;;;;;4938769;28;19910;-87
2022/01/09 10:20:17;;;;;;;;;;;13.00;93.40;;;;;;4957985;28;20054;-87
2022/01/09 10:22:51;;;;;;;;;;;13.00;93.20;;;;;;4958490;28;20234;-87
2022/01/09 10:25:18;;;;;;;;;;;12.90;92.90;;;;;;4952824;28;20382;-87
2022/01/09 10:27:46;;;;;;;;;;;12.80;93.10;;;;;;4927694;28;22380;-87
2022/01/09 10:30:13;;;;;;;;;;;12.80;93.20;;;;;;4945414;28;19928;-86
2022/01/09 10:32:40;;;;;;;;;;;12.90;93.70;;;;;;4943488;28;19918;-87
2022/01/09 10:35:07;;;;;;;;;;;13.10;93.80;;;;;;4947643;28;19944;-87
2022/01/09 10:37:35;;;;;;;;;;;13.10;93.00;;;;;;4986843;28;20255;-86
2022/01/09 10:40:05;;;;;;;;;;;13.10;93.00;;;;;;4989314;28;20106;-87
2022/01/09 10:42:32;;;;;;;;;;;13.20;92.90;;;;;;4998716;28;19917;-87
2022/01/09 10:45:19;;;;;;;;;;;13.10;91.50;;;;;;4983018;28;19921;-87
2022/01/09 10:47:45;;;;;;;;;;;13.10;91.60;;;;;;4977009;28;20329;-87
2022/01/09 10:50:22;;;;;;;;;;;12.90;90.80;;;;;;4980078;28;20379;-87
2022/01/09 10:52:49;;;;;;;;;;;12.80;90.90;;;;;;4965500;28;19947;-87
2022/01/09 10:55:16;;;;;;;;;;;12.80;91.30;;;;;;4992925;28;20040;-89
2022/01/09 10:57:44;;;;;;;;;;;12.80;91.60;;;;;;4999741;28;19940;-88
2022/01/09 11:00:12;;;;;;;;;;;12.90;92.40;;;;;;4986238;28;19914;-88
2022/01/09 11:02:39;;;;;;;;;;;13.10;93.10;;;;;;4986918;28;19917;-88
2022/01/09 11:05:06;;;;;;;;;;;13.30;93.20;;;;;;4983530;28;20390;-87
2022/01/09 11:07:33;;;;;;;;;;;13.50;92.40;;;;;;4989819;28;19922;-87
2022/01/09 11:10:01;;;;;;;;;;;13.80;93.30;;;;;;4975983;28;19913;-87
2022/01/09 11:12:35;;;;;;;;;;;14.00;92.80;;;;;;5013688;28;19923;-87
2022/01/09 11:15:03;;;;;;;;;;;14.30;93.60;;;;;;4972364;28;20172;-87
2022/01/09 11:17:31;;;;;;;;;;;14.60;93.20;;;;;;4971905;28;19953;-87
2022/01/09 11:19:58;;;;;;;;;;;14.80;90.60;;;;;;4979523;28;23337;-87
2022/01/09 11:22:25;;;;;;;;;;;15.00;91.70;;;;;;4987719;28;19924;-87
2022/01/09 11:25:11;;;;;;;;;;;15.10;91.60;;;;;;4983885;28;20298;-87
2022/01/09 11:27:44;;;;;;;;;;;15.10;91.40;;;;;;4994114;28;20362;-87
2022/01/09 11:30:17;;;;;;;;;;;15.20;91.20;;;;;;4987770;28;19914;-87
2022/01/09 11:32:44;;;;;;;;;;;15.20;91.30;;;;;;4993597;28;19913;-87
2022/01/09 11:35:20;;;;;;;;;;;15.40;91.80;;;;;;4984103;28;19918;-86
2022/01/09 11:37:59;;;;;;;;;;;15.50;90.60;;;;;;4995297;28;19951;-87
2022/01/09 11:40:33;;;;;;;;;;;15.70;90.90;;;;;;4984510;28;20287;-87
2022/01/09 11:43:05;;;;;;;;;;;15.80;91.30;;;;;;4990914;28;20124;-87
2022/01/09 11:45:55;;;;;;;;;;;16.00;90.20;;;;;;4992041;28;19924;-87
2022/01/09 11:48:41;;;;;;;;;;;16.00;89.60;;;;;;4973513;28;19920;-86
2022/01/09 11:51:09;;;;;;;;;;;16.00;88.60;;;;;;4979531;28;20137;-87
2022/01/09 11:53:55;;;;;;;;;;;15.80;87.70;;;;;;4994938;28;19928;-87
2022/01/09 11:56:40;;;;;;;;;;;15.80;87.90;;;;;;4970745;28;19937;-86
2022/01/09 11:59:21;;;;;;;;;;;15.70;86.50;;;;;;5009401;28;19924;-86
2022/01/09 12:01:48;;;;;;;;;;;15.60;87.00;;;;;;4987755;28;20202;-86
2022/01/09 12:04:34;;;;;;;;;;;15.50;89.20;;;;;;4977532;28;20387;-86
2022/01/09 12:07:03;;;;;;;;;;;15.40;88.80;;;;;;4980528;28;19914;-86
2022/01/09 12:09:31;;;;;;;;;;;15.30;88.00;;;;;;5014331;28;19914;-86
2022/01/09 12:12:10;;;;;;;;;;;15.20;88.30;;;;;;4983086;28;19914;-84
2022/01/09 12:17:33;;;;;;;;;;;14.90;87.80;;;;;;4987064;28;19913;-85
2022/01/09 12:20:07;;;;;;;;;;;14.80;88.20;;;;;;4984917;28;19914;-86
2022/01/09 12:22:46;;;;;;;;;;;14.60;86.90;;;;;;4985657;28;19923;-86
2022/01/09 12:25:25;;;;;;;;;;;14.40;85.60;;;;;;4997064;28;20032;-86
2022/01/09 12:28:05;;;;;;;;;;;14.20;84.00;;;;;;4979899;28;20109;-87
2022/01/09 12:30:40;;;;;;;;;;;14.00;86.00;;;;;;4980000;28;19921;-86
2022/01/09 12:33:09;;;;;;;;;;;13.90;87.70;;;;;;4995355;28;20296;-86
2022/01/09 12:35:45;;;;;;;;;;;13.90;87.30;;;;;;4978929;28;20138;-85
2022/01/09 12:38:16;;;;;;;;;;;13.90;86.80;;;;;;4982568;28;19913;-85
2022/01/09 12:40:44;;;;;;;;;;;13.80;86.50;;;;;;4991746;28;20140;-86
2022/01/09 12:43:12;;;;;;;;;;;13.80;88.00;;;;;;4981637;28;20299;-86
2022/01/09 12:45:43;;;;;;;;;;;13.70;86.70;;;;;;4991084;28;20557;-85
2022/01/09 12:48:21;;;;;;;;;;;13.70;86.40;;;;;;4987638;28;20167;-86
2022/01/09 12:50:48;;;;;;;;;;;13.70;88.30;;;;;;4985320;28;20237;-85
2022/01/09 12:53:18;;;;;;;;;;;13.80;88.50;;;;;;4982848;28;19936;-86
2022/01/09 12:56:04;;;;;;;;;;;13.90;90.10;;;;;;5002105;28;19918;-86
2022/01/09 12:58:35;;;;;;;;;;;14.00;90.70;;;;;;4981885;28;19924;-86
2022/01/09 13:01:06;;;;;;;;;;;14.20;91.00;;;;;;4983328;28;19921;-85
2022/01/09 13:03:34;;;;;;;;;;;14.30;91.30;;;;;;4995640;28;19917;-85
2022/01/09 13:06:06;;;;;;;;;;;14.50;91.30;;;;;;4982048;28;19936;-84
2022/01/09 13:08:40;;;;;;;;;;;14.50;88.70;;;;;;4977885;28;20270;-87
2022/01/09 13:11:11;;;;;;;;;;;14.50;87.90;;;;;;4977916;28;20201;-85
2022/01/09 13:13:39;;;;;;;;;;;14.50;89.50;;;;;;5002577;28;20210;-86
2022/01/09 13:16:19;;;;;;;;;;;14.50;84.90;;;;;;4994144;28;20558;-87
2022/01/09 13:18:47;;;;;;;;;;;14.50;85.40;;;;;;5000146;28;19913;-87
2022/01/09 13:21:25;;;;;;;;;;;14.70;89.40;;;;;;4992363;28;20047;-86
2022/01/09 13:24:00;;;;;;;;;;;14.80;86.30;;;;;;4967244;28;19922;-86
2022/01/09 13:26:28;;;;;;;;;;;14.90;90.30;;;;;;4992033;28;19914;-87
2022/01/09 13:28:56;;;;;;;;;;;15.10;90.20;;;;;;4983476;28;20149;-85
2022/01/09 13:31:23;;;;;;;;;;;15.20;88.50;;;;;;4984124;28;20974;-86
2022/01/09 13:33:55;;;;;;;;;;;15.40;88.50;;;;;;4992090;28;19917;-85
2022/01/09 13:36:26;;;;;;;;;;;15.40;86.50;;;;;;4985138;28;20451;-88
2022/01/09 13:38:53;;;;;;;;;;;15.40;85.90;;;;;;4982631;28;19935;-86
2022/01/09 13:41:20;;;;;;;;;;;15.40;87.40;;;;;;4992268;28;19913;-86
2022/01/09 13:43:48;;;;;;;;;;;15.50;89.50;;;;;;4993432;28;20205;-87
2022/01/09 13:46:16;;;;;;;;;;;15.50;90.30;;;;;;4986151;28;19913;-86
2022/01/09 13:48:44;;;;;;;;;;;15.70;89.90;;;;;;4996417;28;20200;-87
2022/01/09 13:51:10;;;;;;;;;;;15.70;86.90;;;;;;4988597;28;19921;-85
2022/01/09 13:53:37;;;;;;;;;;;15.60;87.10;;;;;;4985491;28;19913;-85
2022/01/09 13:56:05;;;;;;;;;;;15.60;87.40;;;;;;4982138;28;19917;-87
2022/01/09 13:58:32;;;;;;;;;;;15.60;87.90;;;;;;4994343;28;19944;-86
2022/01/09 14:00:59;;;;;;;;;;;15.50;87.70;;;;;;4974719;28;19920;-85
2022/01/09 14:03:26;;;;;;;;;;;15.30;86.50;;;;;;4995085;28;19918;-86
2022/01/09 14:05:54;;;;;;;;;;;15.10;85.90;;;;;;4992334;28;19918;-86
2022/01/09 14:08:32;;;;;;;;;;;15.00;86.60;;;;;;4980636;28;20583;-86
2022/01/09 14:11:03;;;;;;;;;;;15.00;87.20;;;;;;4965893;28;19914;-86
2022/01/09 14:13:36;;;;;;;;;;;14.90;88.50;;;;;;5015546;28;20161;-86
2022/01/09 14:16:13;;;;;;;;;;;14.90;89.80;;;;;;4982507;28;20476;-86
2022/01/09 14:18:40;;;;;;;;;;;15.00;88.80;;;;;;4992334;28;19920;-85
2022/01/09 14:21:08;;;;;;;;;;;15.00;87.90;;;;;;4984155;28;20279;-86
2022/01/09 14:23:39;;;;;;;;;;;14.90;88.10;;;;;;4994586;28;19914;-85
2022/01/09 14:26:07;;;;;;;;;;;14.70;85.30;;;;;;4985055;28;20317;-85
2022/01/09 14:28:35;;;;;;;;;;;14.60;83.00;;;;;;4970128;28;19928;-86
2022/01/09 14:31:03;;;;;;;;;;;14.30;83.60;;;;;;4986048;28;19919;-85
2022/01/09 14:33:31;;;;;;;;;;;14.10;85.10;;;;;;4979677;28;19914;-86
2022/01/09 14:36:10;;;;;;;;;;;13.90;86.70;;;;;;5000497;28;19922;-86
2022/01/09 14:38:39;;;;;;;;;;;13.70;85.70;;;;;;4992285;28;20290;-85